createdAt,value
2022-12-15T00:00:50.382Z,86.43
2022-12-15T00:03:46.586Z,86.66
2022-12-15T00:06:33.727Z,87.30
2022-12-15T00:09:20.832Z,87.33
2022-12-15T00:12:07.649Z,87.69
2022-12-15T00:14:54.832Z,87.99
2022-12-15T00:17:42.048Z,88.26
2022-12-15T00:20:29.838Z,87.78
2022-12-15T00:23:17.330Z,88.02
2022-12-15T00:26:04.447Z,88.38
2022-12-15T00:28:51.255Z,88.49
2022-12-15T00:31:38.201Z,88.89
2022-12-15T00:34:25.360Z,88.84
2022-12-15T00:37:12.423Z,89.14
2022-12-15T00:39:41.160Z,89.44
2022-12-15T00:42:10.587Z,89.57
2022-12-15T00:44:39.199Z,89.66
2022-12-15T00:47:07.843Z,89.70
2022-12-15T00:49:54.889Z,89.42
2022-12-15T00:52:42.025Z,89.59
2022-12-15T00:55:28.810Z,89.29
2022-12-15T00:58:15.838Z,89.11
2022-12-15T01:01:02.590Z,89.78
2022-12-15T01:03:49.684Z,89.50
2022-12-15T01:06:38.574Z,89.72
2022-12-15T01:09:29.073Z,89.41
2022-12-15T01:12:16.396Z,89.77
2022-12-15T01:15:03.114Z,89.74
2022-12-15T01:17:50.206Z,89.77
2022-12-15T01:20:19.073Z,89.33
2022-12-15T01:22:53.633Z,89.23
2022-12-15T01:25:26.357Z,89.26
2022-12-15T01:27:55.434Z,89.18
2022-12-15T01:30:27.099Z,90.08
2022-12-15T01:32:55.748Z,89.31
2022-12-15T01:35:24.432Z,89.65
2022-12-15T01:37:53.070Z,89.40
2022-12-15T01:40:40.213Z,89.60
2022-12-15T01:43:24.092Z,89.69
2022-12-15T01:46:23.593Z,89.78
2022-12-15T01:49:02.788Z,90.00
2022-12-15T01:51:40.145Z,90.27
2022-12-15T01:54:32.562Z,90.25
2022-12-15T01:57:09.240Z,90.24
2022-12-15T01:59:52.056Z,90.38
2022-12-15T02:02:25.421Z,91.08
2022-12-15T02:04:58.112Z,90.96
2022-12-15T02:07:27.915Z,91.08
2022-12-15T02:10:01.264Z,91.13
2022-12-15T02:12:29.995Z,91.72
2022-12-15T02:15:36.670Z,92.21
2022-12-15T02:18:23.149Z,92.03
2022-12-15T02:21:26.291Z,92.30
2022-12-15T02:24:10.889Z,91.61
2022-12-15T02:26:54.899Z,92.04
2022-12-15T02:29:47.587Z,92.20
2022-12-15T02:32:32.194Z,92.52
2022-12-15T02:35:21.733Z,92.19
2022-12-15T02:37:50.662Z,91.57
2022-12-15T02:40:19.530Z,92.09
2022-12-15T02:42:57.804Z,91.53
2022-12-15T02:45:52.587Z,91.42
2022-12-15T02:48:41.410Z,90.98
2022-12-15T02:51:50.159Z,91.77
2022-12-15T02:55:03.032Z,91.03
2022-12-15T02:58:15.234Z,90.65
2022-12-15T03:01:09.749Z,91.05
2022-12-15T03:03:40.368Z,90.76
2022-12-15T03:06:10.004Z,90.58
2022-12-15T03:08:38.662Z,90.64
2022-12-15T03:11:07.423Z,89.95
2022-12-15T03:13:36.290Z,90.67
2022-12-15T03:16:05.207Z,90.19
2022-12-15T03:18:34.378Z,90.10
2022-12-15T03:21:03.327Z,90.53
2022-12-15T03:23:34.526Z,89.87
2022-12-15T03:26:03.246Z,89.40
2022-12-15T03:28:31.916Z,89.86
2022-12-15T03:31:00.578Z,89.91
2022-12-15T03:33:29.844Z,89.75
2022-12-15T03:35:58.855Z,89.49
2022-12-15T03:38:27.531Z,88.51
2022-12-15T03:40:56.309Z,89.14
2022-12-15T03:43:25.017Z,89.08
2022-12-15T03:45:53.953Z,89.25
2022-12-15T03:48:22.814Z,88.94
2022-12-15T03:50:51.820Z,88.34
2022-12-15T03:53:20.422Z,88.53
2022-12-15T03:55:49.029Z,88.62
2022-12-15T03:58:17.752Z,88.63
2022-12-15T04:00:46.446Z,88.37
2022-12-15T04:03:15.171Z,88.80
2022-12-15T04:05:43.879Z,88.85
2022-12-15T04:08:13.148Z,89.27
2022-12-15T04:10:41.846Z,89.63
2022-12-15T04:13:12.105Z,90.32
2022-12-15T04:15:41.049Z,90.39
2022-12-15T04:18:11.428Z,90.09
2022-12-15T04:20:40.858Z,91.02
2022-12-15T04:23:09.528Z,91.01
2022-12-15T04:25:56.762Z,91.40
2022-12-15T04:28:43.577Z,92.84
2022-12-15T04:31:35.412Z,92.06
2022-12-15T04:34:28.918Z,92.98
2022-12-15T04:37:16.227Z,92.96
2022-12-15T04:40:08.410Z,93.31
2022-12-15T04:42:58.885Z,93.64
2022-12-15T04:45:46.678Z,93.98
2022-12-15T04:48:33.908Z,93.67
2022-12-15T04:51:22.741Z,93.65
2022-12-15T04:54:10.983Z,94.65
2022-12-15T04:56:58.016Z,94.46
2022-12-15T04:59:44.754Z,94.07
2022-12-15T05:02:32.046Z,94.32
2022-12-15T05:05:18.905Z,94.84
2022-12-15T05:08:05.902Z,94.53
2022-12-15T05:10:52.734Z,95.02
2022-12-15T05:13:39.751Z,94.76
2022-12-15T05:16:26.910Z,95.93
2022-12-15T05:19:13.920Z,95.50
2022-12-15T05:22:00.638Z,95.62
2022-12-15T05:24:47.549Z,96.49
2022-12-15T05:27:34.424Z,96.36
2022-12-15T05:30:21.442Z,97.58
2022-12-15T05:32:50.089Z,96.16
2022-12-15T05:35:18.927Z,97.16
2022-12-15T05:37:47.585Z,96.99
2022-12-15T05:40:16.376Z,96.66
2022-12-15T05:42:45.033Z,97.22
2022-12-15T05:45:19.017Z,97.35
2022-12-15T05:47:54.830Z,98.22
2022-12-15T05:50:24.191Z,99.19
2022-12-15T05:52:52.980Z,99.21
2022-12-15T05:55:21.630Z,99.51
2022-12-15T05:57:54.499Z,99.88
2022-12-15T06:00:23.580Z,99.71
2022-12-15T06:02:52.335Z,100.00
2022-12-15T06:05:21.059Z,100.00
2022-12-15T06:07:49.686Z,100.00
2022-12-15T06:10:18.286Z,100.00
2022-12-15T06:12:47.136Z,100.00
2022-12-15T06:15:16.546Z,100.00
2022-12-15T06:17:45.171Z,100.00
2022-12-15T06:20:18.185Z,100.00
2022-12-15T06:22:50.162Z,100.00
2022-12-15T06:25:18.918Z,99.95
2022-12-15T06:27:47.525Z,99.95
2022-12-15T06:30:16.568Z,100.00
2022-12-15T06:32:45.119Z,100.00
2022-12-15T06:35:18.519Z,100.00
2022-12-15T06:37:47.175Z,100.00
2022-12-15T06:40:15.915Z,100.00
2022-12-15T06:42:44.563Z,100.00
2022-12-15T06:45:13.240Z,100.00
2022-12-15T06:47:41.873Z,100.00
2022-12-15T06:50:10.711Z,100.00
2022-12-15T06:52:39.413Z,100.00
2022-12-15T06:55:08.883Z,99.95
2022-12-15T06:57:39.166Z,99.95
2022-12-15T07:00:09.012Z,99.52
2022-12-15T07:02:37.817Z,98.95
2022-12-15T07:05:07.160Z,99.55
2022-12-15T07:07:35.787Z,98.88
2022-12-15T07:10:05.072Z,98.12
2022-12-15T07:12:33.787Z,97.70
2022-12-15T07:15:03.195Z,98.03
2022-12-15T07:17:31.927Z,97.73
2022-12-15T07:20:00.550Z,98.02
2022-12-15T07:22:29.397Z,97.32
2022-12-15T07:24:58.299Z,97.68
2022-12-15T07:27:27.264Z,98.22
2022-12-15T07:29:55.951Z,97.98
2022-12-15T07:32:24.866Z,97.66
2022-12-15T07:34:53.443Z,97.14
2022-12-15T07:37:23.159Z,97.04
2022-12-15T07:39:51.860Z,97.06
2022-12-15T07:42:20.620Z,96.18
2022-12-15T07:44:49.914Z,96.32
2022-12-15T07:47:18.939Z,95.79
2022-12-15T07:49:47.519Z,95.29
2022-12-15T07:52:16.356Z,95.80
2022-12-15T07:54:45.529Z,94.47
2022-12-15T07:57:14.347Z,94.03
2022-12-15T07:59:44.030Z,93.87
2022-12-15T08:02:14.131Z,94.16
2022-12-15T08:04:42.940Z,94.36
2022-12-15T08:07:12.310Z,93.86
2022-12-15T08:09:40.993Z,93.69
2022-12-15T08:12:09.604Z,93.77
2022-12-15T08:14:38.222Z,93.63
2022-12-15T08:17:06.989Z,93.26
2022-12-15T08:19:35.724Z,93.25
2022-12-15T08:22:04.390Z,93.15
2022-12-15T08:24:32.979Z,92.94
2022-12-15T08:27:01.635Z,93.01
2022-12-15T08:29:50.719Z,92.53
2022-12-15T08:32:20.659Z,92.23
2022-12-15T08:34:49.873Z,92.21
2022-12-15T08:37:18.499Z,91.73
2022-12-15T08:39:48.278Z,91.55
2022-12-15T08:42:23.047Z,91.90
2022-12-15T08:44:52.336Z,91.00
2022-12-15T08:47:20.990Z,90.83
2022-12-15T08:49:50.436Z,90.20
2022-12-15T08:52:19.108Z,90.09
2022-12-15T08:54:50.922Z,89.40
2022-12-15T08:57:19.688Z,89.09
2022-12-15T08:59:48.438Z,89.49
2022-12-15T09:02:20.542Z,88.40
2022-12-15T09:04:51.076Z,88.52
2022-12-15T09:07:21.265Z,87.89
2022-12-15T09:09:49.937Z,88.03
2022-12-15T09:12:20.241Z,88.87
2022-12-15T09:14:48.808Z,87.81
2022-12-15T09:17:17.606Z,87.82
2022-12-15T09:19:46.333Z,87.20
2022-12-15T09:22:15.033Z,86.90
2022-12-15T09:24:43.719Z,87.17
2022-12-15T09:27:12.755Z,87.17
2022-12-15T09:29:41.512Z,87.74
2022-12-15T09:32:14.065Z,87.52
2022-12-15T09:34:43.301Z,87.76
2022-12-15T09:37:11.835Z,87.17
2022-12-15T09:39:40.493Z,86.46
2022-12-15T09:42:28.102Z,86.37
2022-12-15T09:45:21.746Z,87.14
2022-12-15T09:47:59.146Z,88.82
2022-12-15T09:50:41.457Z,88.06
2022-12-15T09:53:45.706Z,88.20
2022-12-15T09:56:21.360Z,88.12
2022-12-15T09:59:05.935Z,88.71
2022-12-15T10:01:52.840Z,88.90
2022-12-15T10:05:12.741Z,88.87
2022-12-15T10:07:46.685Z,89.81
2022-12-15T10:10:43.043Z,90.42
2022-12-15T10:13:45.788Z,89.69
2022-12-15T10:16:36.294Z,89.49
2022-12-15T10:19:27.004Z,88.52
2022-12-15T10:21:58.051Z,87.57
2022-12-15T10:25:09.059Z,87.99
2022-12-15T10:27:44.770Z,87.21
2022-12-15T10:30:15.283Z,87.58
2022-12-15T10:33:02.403Z,87.64
2022-12-15T10:35:35.610Z,87.30
2022-12-15T10:38:14.973Z,87.62
2022-12-15T10:41:07.751Z,89.60
2022-12-15T10:43:40.689Z,87.30
2022-12-15T10:46:18.978Z,86.17
2022-12-15T10:48:51.475Z,84.94
2022-12-15T10:51:31.001Z,84.97
2022-12-15T10:54:11.727Z,83.92
2022-12-15T10:56:53.317Z,83.92
2022-12-15T10:59:38.845Z,83.73
2022-12-15T11:02:37.411Z,82.18
2022-12-15T11:05:15.808Z,81.61
2022-12-15T11:07:54.533Z,83.61
2022-12-15T11:10:50.386Z,82.01
2022-12-15T11:13:22.813Z,77.90
2022-12-15T11:15:56.341Z,77.61
2022-12-15T11:18:44.892Z,78.64
2022-12-15T11:21:39.645Z,76.51
2022-12-15T11:24:18.310Z,76.85
2022-12-15T11:26:51.319Z,76.02
2022-12-15T11:29:50.129Z,75.50
2022-12-15T11:32:25.372Z,71.33
2022-12-15T11:34:54.373Z,70.61
2022-12-15T11:37:40.739Z,70.83
2022-12-15T11:40:40.752Z,72.19
2022-12-15T11:43:35.876Z,72.29
2022-12-15T11:46:52.097Z,71.14
2022-12-15T11:49:44.713Z,70.78
2022-12-15T11:52:58.283Z,71.00
2022-12-15T11:56:10.068Z,71.11
2022-12-15T11:58:54.524Z,71.11
2022-12-15T12:02:12.926Z,69.80
2022-12-15T12:05:21.129Z,68.40
2022-12-15T12:08:07.977Z,67.83
2022-12-15T12:11:04.334Z,67.45
2022-12-15T12:14:11.676Z,68.08
2022-12-15T12:17:23.366Z,66.72
2022-12-15T12:20:00.236Z,64.22
2022-12-15T12:22:35.990Z,61.73
2022-12-15T12:25:19.114Z,61.76
2022-12-15T12:27:58.905Z,60.40
2022-12-15T12:30:44.600Z,60.83
2022-12-15T12:33:29.912Z,61.23
2022-12-15T12:36:06.272Z,59.41
2022-12-15T12:38:41.583Z,58.91
2022-12-15T12:41:37.004Z,59.95
2022-12-15T12:44:34.169Z,56.82
2022-12-15T12:47:36.345Z,55.69
2022-12-15T12:50:21.789Z,56.58
2022-12-15T12:52:58.218Z,56.20
2022-12-15T12:55:41.980Z,58.10
2022-12-15T12:58:41.599Z,58.29
2022-12-15T13:01:26.211Z,58.96
2022-12-15T13:04:40.418Z,57.30
2022-12-15T13:07:35.377Z,56.29
2022-12-15T13:10:09.734Z,56.87
2022-12-15T13:13:00.568Z,55.27
2022-12-15T13:15:50.893Z,58.01
2022-12-15T13:18:27.495Z,56.91
2022-12-15T13:20:58.275Z,56.13
2022-12-15T13:23:27.804Z,57.61
2022-12-15T13:25:59.387Z,58.26
2022-12-15T13:28:39.241Z,58.09
2022-12-15T13:31:17.153Z,61.53
2022-12-15T13:33:54.150Z,64.41
2022-12-15T13:36:37.991Z,65.02
2022-12-15T13:39:12.761Z,62.99
2022-12-15T13:41:54.513Z,64.44
2022-12-15T13:44:32.175Z,63.93
2022-12-15T13:47:16.765Z,65.30
2022-12-15T13:53:18.512Z,65.77
2022-12-15T13:56:24.530Z,64.59
2022-12-15T13:59:13.592Z,65.34
2022-12-15T14:01:51.639Z,64.35
2022-12-15T14:04:21.695Z,65.85
2022-12-15T14:07:00.491Z,67.73
2022-12-15T14:09:34.490Z,70.55
2022-12-15T14:12:06.769Z,72.45
2022-12-15T14:14:42.953Z,74.29
2022-12-15T14:17:16.302Z,77.29
2022-12-15T14:19:50.969Z,76.13
2022-12-15T14:22:29.023Z,79.17
2022-12-15T14:25:20.095Z,81.09
2022-12-15T14:27:50.773Z,85.67
2022-12-15T14:30:22.964Z,90.14
2022-12-15T14:33:16.530Z,88.25
2022-12-15T14:35:49.584Z,88.57
2022-12-15T14:38:35.295Z,89.61
2022-12-15T14:41:06.422Z,91.05
2022-12-15T14:43:39.854Z,91.07
2022-12-15T14:46:16.131Z,91.69
2022-12-15T14:48:57.327Z,94.66
2022-12-15T14:51:31.822Z,100.00
2022-12-15T14:54:00.589Z,99.12
2022-12-15T14:56:32.844Z,97.78
2022-12-15T14:59:19.019Z,97.56
2022-12-15T15:01:59.843Z,99.74
2022-12-15T15:03:16.234Z,63.42
2022-12-15T15:04:34.317Z,99.34
2022-12-15T15:07:06.716Z,95.43
2022-12-15T15:09:43.096Z,98.83
2022-12-15T15:12:18.064Z,99.23
2022-12-15T15:14:51.825Z,97.69
2022-12-15T15:17:37.916Z,95.03
2022-12-15T15:20:37.955Z,95.78
2022-12-15T15:23:19.312Z,93.52
2022-12-15T15:25:56.695Z,96.80
2022-12-15T15:28:35.905Z,99.34
2022-12-15T15:31:41.826Z,100.00
2022-12-15T15:34:11.634Z,100.00
2022-12-15T15:36:40.484Z,100.00
2022-12-15T15:39:20.379Z,100.00
2022-12-15T15:41:49.097Z,100.00
2022-12-15T15:44:17.750Z,100.00
2022-12-15T15:46:52.197Z,100.00
2022-12-15T15:49:23.654Z,100.00
2022-12-15T15:51:52.256Z,100.00
2022-12-15T15:54:25.356Z,100.00
2022-12-15T15:56:53.840Z,100.00
2022-12-15T15:59:25.326Z,100.00
2022-12-15T16:01:56.203Z,100.00
2022-12-15T16:04:26.459Z,100.00
2022-12-15T16:06:55.349Z,100.00
2022-12-15T16:09:25.096Z,100.00
2022-12-15T16:11:53.815Z,100.00
2022-12-15T16:14:22.604Z,100.00
2022-12-15T16:16:54.130Z,100.00
2022-12-15T16:19:24.103Z,100.00
2022-12-15T16:21:53.427Z,100.00
2022-12-15T16:24:22.165Z,100.00
2022-12-15T16:26:51.387Z,100.00
2022-12-15T16:29:21.583Z,100.00
2022-12-15T16:31:50.496Z,100.00
2022-12-15T16:34:24.817Z,100.00
2022-12-15T16:36:53.644Z,100.00
2022-12-15T16:39:33.655Z,100.00
2022-12-15T16:42:03.152Z,100.00
2022-12-15T16:44:31.852Z,100.00
2022-12-15T16:47:00.535Z,100.00
2022-12-15T16:49:35.105Z,100.00
2022-12-15T16:52:19.297Z,100.00
2022-12-15T16:54:50.952Z,100.00
2022-12-15T16:57:19.706Z,100.00
2022-12-15T16:59:50.050Z,100.00
2022-12-15T17:02:28.387Z,100.00
2022-12-15T17:04:57.602Z,100.00
2022-12-15T17:07:28.269Z,100.00
2022-12-15T17:09:57.126Z,100.00
2022-12-15T17:12:26.227Z,100.00
2022-12-15T17:14:54.856Z,100.00
2022-12-15T17:17:23.622Z,100.00
2022-12-15T17:20:27.546Z,100.00
2022-12-15T17:22:41.139Z,100.00
2022-12-15T17:25:44.265Z,100.00
2022-12-15T17:28:20.908Z,100.00
2022-12-15T17:30:51.813Z,100.00
2022-12-15T17:33:27.791Z,100.00
2022-12-15T17:36:01.678Z,100.00
2022-12-15T17:38:31.007Z,100.00
2022-12-15T17:41:01.286Z,100.00
2022-12-15T17:43:35.712Z,100.00
2022-12-15T17:46:05.006Z,100.00
2022-12-15T17:48:34.123Z,100.00
2022-12-15T17:51:02.845Z,100.00
2022-12-15T17:53:32.120Z,100.00
2022-12-15T17:56:01.073Z,100.00
2022-12-15T17:58:29.821Z,100.00
2022-12-15T18:00:59.302Z,100.00
2022-12-15T18:03:28.265Z,100.00
2022-12-15T18:05:57.669Z,100.00
2022-12-15T18:08:28.347Z,100.00
2022-12-15T18:10:58.272Z,100.00
2022-12-15T18:13:35.032Z,100.00
2022-12-15T18:16:04.641Z,100.00
2022-12-15T18:18:35.156Z,100.00
2022-12-15T18:21:14.724Z,100.00
2022-12-15T18:23:45.086Z,100.00
2022-12-15T18:26:15.315Z,100.00
2022-12-15T18:28:44.236Z,100.00
2022-12-15T18:31:28.217Z,100.00
2022-12-15T18:34:04.122Z,100.00
2022-12-15T18:36:33.731Z,100.00
2022-12-15T18:39:18.869Z,100.00
2022-12-15T18:41:48.724Z,100.00
2022-12-15T18:44:27.223Z,100.00
2022-12-15T18:46:56.432Z,100.00
2022-12-15T18:49:25.228Z,100.00
2022-12-15T18:51:53.949Z,100.00
2022-12-15T18:54:24.633Z,100.00
2022-12-15T18:56:54.866Z,100.00
2022-12-15T18:59:23.690Z,100.00
2022-12-15T19:01:52.464Z,100.00
2022-12-15T19:04:21.183Z,100.00
2022-12-15T19:06:49.893Z,100.00
2022-12-15T19:09:23.427Z,100.00
2022-12-15T19:12:10.072Z,100.00
2022-12-15T19:14:41.540Z,100.00
2022-12-15T19:17:41.148Z,100.00
2022-12-15T19:20:37.255Z,100.00
2022-12-15T19:23:07.207Z,100.00
2022-12-15T19:25:36.021Z,100.00
2022-12-15T19:28:15.657Z,100.00
2022-12-15T19:30:45.156Z,100.00
2022-12-15T19:33:15.597Z,100.00
2022-12-15T19:35:48.900Z,100.00
2022-12-15T19:38:25.965Z,100.00
2022-12-15T19:40:56.708Z,100.00
2022-12-15T19:43:26.498Z,100.00
2022-12-15T19:45:55.192Z,100.00
2022-12-15T19:48:24.505Z,100.00
2022-12-15T19:50:54.784Z,100.00
2022-12-15T19:53:27.430Z,100.00
2022-12-15T19:56:01.646Z,100.00
2022-12-15T19:58:34.182Z,100.00
2022-12-15T20:01:07.935Z,100.00
2022-12-15T20:03:37.427Z,100.00
2022-12-15T20:06:17.368Z,100.00
2022-12-15T20:08:50.600Z,100.00
2022-12-15T20:11:24.494Z,100.00
2022-12-15T20:13:54.136Z,100.00
2022-12-15T20:16:23.756Z,100.00
2022-12-15T20:18:55.126Z,100.00
2022-12-15T20:21:31.469Z,100.00
2022-12-15T20:24:16.624Z,100.00
2022-12-15T20:26:46.116Z,100.00
2022-12-15T20:29:28.440Z,100.00
2022-12-15T20:31:59.010Z,100.00
2022-12-15T20:34:28.054Z,100.00
2022-12-15T20:36:57.415Z,100.00
2022-12-15T20:39:30.422Z,100.00
2022-12-15T20:41:59.050Z,100.00
2022-12-15T20:44:28.052Z,100.00
2022-12-15T20:46:57.402Z,100.00
2022-12-15T20:49:26.640Z,100.00
2022-12-15T20:51:55.275Z,100.00
2022-12-15T20:54:24.238Z,100.00
2022-12-15T20:56:53.517Z,100.00
2022-12-15T20:59:22.289Z,100.00
2022-12-15T21:01:51.811Z,100.00
2022-12-15T21:04:28.648Z,100.00
2022-12-15T21:06:57.770Z,100.00
2022-12-15T21:09:26.933Z,100.00
2022-12-15T21:11:55.751Z,100.00
2022-12-15T21:14:24.769Z,100.00
2022-12-15T21:16:53.990Z,100.00
2022-12-15T21:19:23.405Z,100.00
2022-12-15T21:21:55.585Z,100.00
2022-12-15T21:24:27.455Z,100.00
2022-12-15T21:26:56.565Z,100.00
2022-12-15T21:29:28.295Z,100.00
2022-12-15T21:31:57.478Z,100.00
2022-12-15T21:34:26.193Z,100.00
2022-12-15T21:36:55.543Z,100.00
2022-12-15T21:39:30.150Z,100.00
2022-12-15T21:42:03.892Z,100.00
2022-12-15T21:44:32.535Z,100.00
2022-12-15T21:47:01.279Z,100.00
2022-12-15T21:49:29.990Z,100.00
2022-12-15T21:52:01.286Z,100.00
2022-12-15T21:54:36.431Z,100.00
2022-12-15T21:57:07.029Z,100.00
2022-12-15T21:59:36.592Z,100.00
2022-12-15T22:02:24.741Z,100.00
2022-12-15T22:04:55.062Z,100.00
2022-12-15T22:07:23.920Z,100.00
2022-12-15T22:09:52.562Z,100.00
2022-12-15T22:12:24.667Z,100.00
2022-12-15T22:14:53.347Z,100.00
2022-12-15T22:17:22.974Z,100.00
2022-12-15T22:19:51.794Z,100.00
2022-12-15T22:22:20.841Z,100.00
2022-12-15T22:24:49.484Z,100.00
2022-12-15T22:27:22.909Z,100.00
2022-12-15T22:29:51.689Z,100.00
2022-12-15T22:32:20.592Z,100.00
2022-12-15T22:34:49.313Z,100.00
2022-12-15T22:37:17.871Z,100.00
2022-12-15T22:39:46.550Z,100.00
2022-12-15T22:42:17.643Z,100.00
2022-12-15T22:44:46.362Z,100.00
2022-12-15T22:47:15.028Z,100.00
2022-12-15T22:49:43.684Z,100.00
2022-12-15T22:52:21.442Z,100.00
2022-12-15T22:54:49.996Z,100.00
2022-12-15T22:57:27.367Z,100.00
2022-12-15T23:00:05.963Z,100.00
2022-12-15T23:02:40.966Z,100.00
2022-12-15T23:05:14.350Z,100.00
2022-12-15T23:07:44.411Z,100.00
2022-12-15T23:10:37.325Z,100.00
2022-12-15T23:13:07.203Z,100.00
2022-12-15T23:15:54.703Z,100.00
2022-12-15T23:18:23.452Z,100.00
2022-12-15T23:20:52.181Z,100.00
2022-12-15T23:23:20.733Z,100.00
2022-12-15T23:25:49.354Z,100.00
2022-12-15T23:28:17.943Z,100.00
2022-12-15T23:30:54.765Z,100.00
2022-12-15T23:33:25.178Z,100.00
2022-12-15T23:35:56.163Z,100.00
2022-12-15T23:38:26.128Z,100.00
2022-12-15T23:40:56.923Z,100.00
2022-12-15T23:43:27.769Z,100.00
2022-12-15T23:46:06.223Z,100.00
2022-12-15T23:48:38.470Z,100.00
2022-12-15T23:51:17.123Z,100.00
2022-12-15T23:53:47.580Z,100.00
2022-12-15T23:56:22.501Z,100.00
2022-12-15T23:58:57.760Z,100.00
